sensor_id;sensor_type;location;lat;lon;timestamp;pressure;altitude;pressure_sealevel;temperature;humidity
46347;BME280;32057;47.830;19.046;2022-08-27T00:01:20;99603.88;;;19.85;96.69
46347;BME280;32057;47.830;19.046;2022-08-27T00:03:46;99598.69;;;19.81;95.78
46347;BME280;32057;47.830;19.046;2022-08-27T00:06:14;99597.69;;;19.85;96.16
46347;BME280;32057;47.830;19.046;2022-08-27T00:08:41;99598.75;;;19.79;94.92
46347;BME280;32057;47.830;19.046;2022-08-27T00:11:07;99599.50;;;19.83;95.31
46347;BME280;32057;47.830;19.046;2022-08-27T00:13:33;99604.66;;;19.89;95.22
46347;BME280;32057;47.830;19.046;2022-08-27T00:15:58;99600.88;;;19.96;95.79
46347;BME280;32057;47.830;19.046;2022-08-27T00:18:24;99608.25;;;19.85;95.13
46347;BME280;32057;47.830;19.046;2022-08-27T00:20:51;99606.53;;;19.84;94.63
46347;BME280;32057;47.830;19.046;2022-08-27T00:23:16;99609.94;;;19.89;95.94
46347;BME280;32057;47.830;19.046;2022-08-27T00:25:41;99619.59;;;19.88;94.89
46347;BME280;32057;47.830;19.046;2022-08-27T00:28:07;99612.56;;;19.89;95.12
46347;BME280;32057;47.830;19.046;2022-08-27T00:30:33;99614.41;;;19.85;95.52
46347;BME280;32057;47.830;19.046;2022-08-27T00:32:58;99612.59;;;19.87;95.60
46347;BME280;32057;47.830;19.046;2022-08-27T00:35:24;99613.31;;;19.93;94.43
46347;BME280;32057;47.830;19.046;2022-08-27T00:37:51;99613.47;;;19.88;94.45
46347;BME280;32057;47.830;19.046;2022-08-27T00:40:20;99612.72;;;19.83;95.05
46347;BME280;32057;47.830;19.046;2022-08-27T00:42:46;99615.53;;;19.77;94.58
46347;BME280;32057;47.830;19.046;2022-08-27T00:45:14;99615.47;;;19.80;94.59
46347;BME280;32057;47.830;19.046;2022-08-27T00:47:44;99610.19;;;19.80;95.28
46347;BME280;32057;47.830;19.046;2022-08-27T00:50:14;99615.63;;;19.74;95.01
46347;BME280;32057;47.830;19.046;2022-08-27T00:55:16;99617.59;;;19.65;93.06
46347;BME280;32057;47.830;19.046;2022-08-27T00:57:55;99616.44;;;19.77;92.33
46347;BME280;32057;47.830;19.046;2022-08-27T01:00:22;99620.56;;;19.86;92.94
46347;BME280;32057;47.830;19.046;2022-08-27T01:02:47;99614.34;;;19.87;93.01
46347;BME280;32057;47.830;19.046;2022-08-27T01:05:19;99617.09;;;19.84;93.51
46347;BME280;32057;47.830;19.046;2022-08-27T01:07:48;99620.59;;;19.84;93.05
46347;BME280;32057;47.830;19.046;2022-08-27T01:10:17;99621.41;;;19.86;93.22
46347;BME280;32057;47.830;19.046;2022-08-27T01:12:47;99618.97;;;19.80;93.74
46347;BME280;32057;47.830;19.046;2022-08-27T01:15:16;99623.59;;;19.70;94.88
46347;BME280;32057;47.830;19.046;2022-08-27T01:17:43;99613.16;;;19.67;94.27
46347;BME280;32057;47.830;19.046;2022-08-27T01:20:42;99618.28;;;19.74;93.67
46347;BME280;32057;47.830;19.046;2022-08-27T01:25:44;99633.16;;;19.76;93.43
46347;BME280;32057;47.830;19.046;2022-08-27T01:28:11;99641.41;;;19.64;93.84
46347;BME280;32057;47.830;19.046;2022-08-27T01:30:38;99651.31;;;19.56;94.96
46347;BME280;32057;47.830;19.046;2022-08-27T01:33:14;99646.97;;;19.53;94.17
46347;BME280;32057;47.830;19.046;2022-08-27T01:35:42;99648.22;;;19.40;95.44
46347;BME280;32057;47.830;19.046;2022-08-27T01:38:08;99651.91;;;19.33;96.69
46347;BME280;32057;47.830;19.046;2022-08-27T01:40:35;99651.63;;;19.09;97.24
46347;BME280;32057;47.830;19.046;2022-08-27T01:43:01;99646.09;;;19.20;96.70
46347;BME280;32057;47.830;19.046;2022-08-27T01:45:33;99643.44;;;19.21;97.02
46347;BME280;32057;47.830;19.046;2022-08-27T01:48:00;99648.38;;;19.34;96.88
46347;BME280;32057;47.830;19.046;2022-08-27T01:50:29;99647.56;;;19.32;97.18
46347;BME280;32057;47.830;19.046;2022-08-27T01:52:56;99644.16;;;19.26;96.55
46347;BME280;32057;47.830;19.046;2022-08-27T01:55:26;99637.19;;;19.24;97.57
46347;BME280;32057;47.830;19.046;2022-08-27T01:57:53;99638.22;;;19.18;97.97
46347;BME280;32057;47.830;19.046;2022-08-27T02:00:25;99640.09;;;19.13;98.93
46347;BME280;32057;47.830;19.046;2022-08-27T02:02:51;99642.81;;;19.10;98.32
46347;BME280;32057;47.830;19.046;2022-08-27T02:05:18;99638.50;;;19.07;98.66
46347;BME280;32057;47.830;19.046;2022-08-27T02:07:44;99638.56;;;19.04;96.47
46347;BME280;32057;47.830;19.046;2022-08-27T02:10:12;99633.50;;;18.97;97.33
46347;BME280;32057;47.830;19.046;2022-08-27T02:12:40;99630.94;;;18.94;98.60
46347;BME280;32057;47.830;19.046;2022-08-27T02:15:06;99623.97;;;18.91;99.05
46347;BME280;32057;47.830;19.046;2022-08-27T02:17:32;99637.09;;;18.93;99.60
46347;BME280;32057;47.830;19.046;2022-08-27T02:19:58;99635.41;;;18.92;98.00
46347;BME280;32057;47.830;19.046;2022-08-27T02:22:24;99641.16;;;18.70;100.00
46347;BME280;32057;47.830;19.046;2022-08-27T02:24:50;99636.84;;;18.66;100.00
46347;BME280;32057;47.830;19.046;2022-08-27T02:27:15;99638.41;;;18.75;100.00
46347;BME280;32057;47.830;19.046;2022-08-27T02:29:42;99631.56;;;18.67;100.00
46347;BME280;32057;47.830;19.046;2022-08-27T02:32:07;99634.88;;;18.76;100.00
46347;BME280;32057;47.830;19.046;2022-08-27T02:34:33;99631.28;;;18.78;100.00
46347;BME280;32057;47.830;19.046;2022-08-27T02:36:59;99631.44;;;18.72;99.96
46347;BME280;32057;47.830;19.046;2022-08-27T02:39:24;99635.06;;;18.68;99.72
46347;BME280;32057;47.830;19.046;2022-08-27T02:41:50;99637.81;;;18.63;99.03
46347;BME280;32057;47.830;19.046;2022-08-27T02:44:15;99628.63;;;18.42;100.00
46347;BME280;32057;47.830;19.046;2022-08-27T02:46:41;99636.72;;;18.33;100.00
46347;BME280;32057;47.830;19.046;2022-08-27T02:49:07;99630.63;;;18.31;100.00
46347;BME280;32057;47.830;19.046;2022-08-27T02:51:34;99635.00;;;18.32;100.00
46347;BME280;32057;47.830;19.046;2022-08-27T02:54:00;99636.59;;;18.39;100.00
46347;BME280;32057;47.830;19.046;2022-08-27T02:56:26;99635.06;;;18.29;100.00
46347;BME280;32057;47.830;19.046;2022-08-27T02:58:52;99626.63;;;18.13;100.00
46347;BME280;32057;47.830;19.046;2022-08-27T03:01:18;99631.00;;;18.14;100.00
46347;BME280;32057;47.830;19.046;2022-08-27T03:03:43;99625.50;;;18.25;100.00
46347;BME280;32057;47.830;19.046;2022-08-27T03:06:09;99631.44;;;18.35;100.00
46347;BME280;32057;47.830;19.046;2022-08-27T03:08:35;99631.34;;;18.39;100.00
46347;BME280;32057;47.830;19.046;2022-08-27T03:11:00;99629.56;;;18.40;100.00
46347;BME280;32057;47.830;19.046;2022-08-27T03:13:26;99632.69;;;18.18;100.00
46347;BME280;32057;47.830;19.046;2022-08-27T03:15:52;99633.66;;;18.13;100.00
46347;BME280;32057;47.830;19.046;2022-08-27T03:18:19;99643.19;;;18.20;100.00
46347;BME280;32057;47.830;19.046;2022-08-27T03:20:53;99634.34;;;18.22;100.00
46347;BME280;32057;47.830;19.046;2022-08-27T03:23:23;99637.84;;;18.23;100.00
46347;BME280;32057;47.830;19.046;2022-08-27T03:25:55;99634.31;;;18.24;100.00
46347;BME280;32057;47.830;19.046;2022-08-27T03:28:23;99635.19;;;18.23;100.00
46347;BME280;32057;47.830;19.046;2022-08-27T03:30:57;99631.88;;;18.15;100.00
46347;BME280;32057;47.830;19.046;2022-08-27T03:33:24;99633.81;;;18.06;100.00
46347;BME280;32057;47.830;19.046;2022-08-27T03:35:51;99634.88;;;17.98;100.00
46347;BME280;32057;47.830;19.046;2022-08-27T03:38:16;99632.94;;;18.06;100.00
46347;BME280;32057;47.830;19.046;2022-08-27T03:40:42;99635.41;;;18.14;100.00
46347;BME280;32057;47.830;19.046;2022-08-27T03:43:11;99632.78;;;18.14;100.00
46347;BME280;32057;47.830;19.046;2022-08-27T03:45:38;99628.41;;;18.13;100.00
46347;BME280;32057;47.830;19.046;2022-08-27T03:48:04;99625.16;;;18.01;100.00
46347;BME280;32057;47.830;19.046;2022-08-27T03:50:31;99628.66;;;18.02;100.00
46347;BME280;32057;47.830;19.046;2022-08-27T03:52:57;99629.66;;;17.95;100.00
46347;BME280;32057;47.830;19.046;2022-08-27T03:55:23;99632.53;;;17.84;100.00
46347;BME280;32057;47.830;19.046;2022-08-27T03:57:48;99624.56;;;17.87;100.00
46347;BME280;32057;47.830;19.046;2022-08-27T04:00:14;99627.38;;;17.78;100.00
46347;BME280;32057;47.830;19.046;2022-08-27T04:02:41;99629.91;;;17.82;100.00
46347;BME280;32057;47.830;19.046;2022-08-27T04:05:09;99634.19;;;17.88;100.00
46347;BME280;32057;47.830;19.046;2022-08-27T04:07:37;99631.41;;;17.96;100.00
46347;BME280;32057;47.830;19.046;2022-08-27T04:10:04;99638.13;;;18.09;100.00
46347;BME280;32057;47.830;19.046;2022-08-27T04:12:30;99634.66;;;18.07;100.00
46347;BME280;32057;47.830;19.046;2022-08-27T04:14:58;99648.59;;;18.14;100.00
46347;BME280;32057;47.830;19.046;2022-08-27T04:17:23;99644.94;;;18.19;100.00
46347;BME280;32057;47.830;19.046;2022-08-27T04:19:52;99636.16;;;18.19;100.00
46347;BME280;32057;47.830;19.046;2022-08-27T04:22:18;99635.34;;;18.17;100.00
46347;BME280;32057;47.830;19.046;2022-08-27T04:24:43;99637.91;;;18.20;100.00
46347;BME280;32057;47.830;19.046;2022-08-27T04:27:09;99635.28;;;18.20;100.00
46347;BME280;32057;47.830;19.046;2022-08-27T04:29:36;99642.53;;;18.08;100.00
46347;BME280;32057;47.830;19.046;2022-08-27T04:32:03;99638.53;;;17.90;100.00
46347;BME280;32057;47.830;19.046;2022-08-27T04:34:29;99640.19;;;17.95;100.00
46347;BME280;32057;47.830;19.046;2022-08-27T04:36:55;99635.09;;;17.87;100.00
46347;BME280;32057;47.830;19.046;2022-08-27T04:39:21;99631.75;;;17.77;100.00
46347;BME280;32057;47.830;19.046;2022-08-27T04:41:52;99632.53;;;17.84;100.00
46347;BME280;32057;47.830;19.046;2022-08-27T04:44:19;99631.53;;;17.89;100.00
46347;BME280;32057;47.830;19.046;2022-08-27T04:46:44;99632.13;;;18.02;100.00
46347;BME280;32057;47.830;19.046;2022-08-27T04:49:13;99628.69;;;17.99;100.00
46347;BME280;32057;47.830;19.046;2022-08-27T04:51:39;99626.41;;;17.82;100.00
46347;BME280;32057;47.830;19.046;2022-08-27T04:54:05;99631.47;;;17.92;100.00
46347;BME280;32057;47.830;19.046;2022-08-27T04:56:34;99632.50;;;17.85;100.00
46347;BME280;32057;47.830;19.046;2022-08-27T04:59:02;99638.34;;;18.00;100.00
46347;BME280;32057;47.830;19.046;2022-08-27T05:01:29;99641.13;;;18.33;100.00
46347;BME280;32057;47.830;19.046;2022-08-27T05:03:55;99643.59;;;18.78;100.00
46347;BME280;32057;47.830;19.046;2022-08-27T05:06:23;99641.78;;;19.17;99.72
46347;BME280;32057;47.830;19.046;2022-08-27T05:08:49;99639.81;;;19.25;99.06
46347;BME280;32057;47.830;19.046;2022-08-27T05:11:16;99642.63;;;19.18;98.96
46347;BME280;32057;47.830;19.046;2022-08-27T05:13:43;99638.81;;;19.29;97.86
46347;BME280;32057;47.830;19.046;2022-08-27T05:16:11;99632.72;;;19.59;97.02
46347;BME280;32057;47.830;19.046;2022-08-27T05:18:40;99639.94;;;19.85;94.66
46347;BME280;32057;47.830;19.046;2022-08-27T05:21:07;99636.63;;;20.08;93.47
46347;BME280;32057;47.830;19.046;2022-08-27T05:23:34;99646.81;;;19.59;98.11
46347;BME280;32057;47.830;19.046;2022-08-27T05:25:59;99648.09;;;19.43;98.66
46347;BME280;32057;47.830;19.046;2022-08-27T05:28:27;99644.47;;;19.47;97.58
46347;BME280;32057;47.830;19.046;2022-08-27T05:31:01;99631.63;;;19.67;97.25
46347;BME280;32057;47.830;19.046;2022-08-27T05:33:27;99640.22;;;19.76;96.89
46347;BME280;32057;47.830;19.046;2022-08-27T05:35:54;99638.13;;;19.87;96.16
46347;BME280;32057;47.830;19.046;2022-08-27T05:38:21;99630.56;;;20.04;96.11
46347;BME280;32057;47.830;19.046;2022-08-27T05:40:49;99627.25;;;20.27;95.34
46347;BME280;32057;47.830;19.046;2022-08-27T05:43:17;99635.75;;;20.37;94.33
46347;BME280;32057;47.830;19.046;2022-08-27T05:45:44;99636.38;;;20.45;94.10
46347;BME280;32057;47.830;19.046;2022-08-27T05:48:10;99627.31;;;20.53;94.11
46347;BME280;32057;47.830;19.046;2022-08-27T05:50:37;99632.94;;;20.43;93.37
46347;BME280;32057;47.830;19.046;2022-08-27T05:53:03;99624.81;;;20.49;91.26
46347;BME280;32057;47.830;19.046;2022-08-27T05:55:28;99636.00;;;20.58;93.07
46347;BME280;32057;47.830;19.046;2022-08-27T05:57:53;99631.97;;;20.74;91.16
46347;BME280;32057;47.830;19.046;2022-08-27T06:00:19;99632.72;;;20.78;88.89
46347;BME280;32057;47.830;19.046;2022-08-27T06:03:03;99640.31;;;20.88;89.06
46347;BME280;32057;47.830;19.046;2022-08-27T06:05:29;99629.16;;;21.05;88.71
46347;BME280;32057;47.830;19.046;2022-08-27T06:07:54;99633.78;;;21.25;88.01
46347;BME280;32057;47.830;19.046;2022-08-27T06:10:19;99635.72;;;21.47;88.34
46347;BME280;32057;47.830;19.046;2022-08-27T06:12:45;99636.88;;;21.63;88.79
46347;BME280;32057;47.830;19.046;2022-08-27T06:15:11;99644.13;;;21.82;87.98
46347;BME280;32057;47.830;19.046;2022-08-27T06:17:36;99638.16;;;22.00;82.92
46347;BME280;32057;47.830;19.046;2022-08-27T06:20:02;99642.69;;;22.20;83.80
46347;BME280;32057;47.830;19.046;2022-08-27T06:22:28;99649.09;;;22.38;82.96
46347;BME280;32057;47.830;19.046;2022-08-27T06:24:53;99642.28;;;22.33;81.16
46347;BME280;32057;47.830;19.046;2022-08-27T06:27:19;99648.44;;;22.33;82.26
46347;BME280;32057;47.830;19.046;2022-08-27T06:29:45;99646.34;;;22.41;82.58
46347;BME280;32057;47.830;19.046;2022-08-27T06:32:11;99653.84;;;22.52;82.88
46347;BME280;32057;47.830;19.046;2022-08-27T06:34:38;99651.84;;;22.59;83.48
46347;BME280;32057;47.830;19.046;2022-08-27T06:37:03;99653.31;;;22.66;83.66
46347;BME280;32057;47.830;19.046;2022-08-27T06:39:29;99650.41;;;22.72;81.05
46347;BME280;32057;47.830;19.046;2022-08-27T06:41:55;99651.19;;;22.74;78.19
46347;BME280;32057;47.830;19.046;2022-08-27T06:44:23;99650.94;;;22.80;78.14
46347;BME280;32057;47.830;19.046;2022-08-27T06:46:50;99652.44;;;22.87;80.57
46347;BME280;32057;47.830;19.046;2022-08-27T06:49:16;99654.03;;;22.92;82.29
46347;BME280;32057;47.830;19.046;2022-08-27T06:51:44;99661.78;;;22.96;82.58
46347;BME280;32057;47.830;19.046;2022-08-27T06:54:11;99660.72;;;23.02;83.49
46347;BME280;32057;47.830;19.046;2022-08-27T06:56:39;99659.53;;;23.09;84.43
46347;BME280;32057;47.830;19.046;2022-08-27T06:59:07;99668.03;;;23.17;84.17
46347;BME280;32057;47.830;19.046;2022-08-27T07:01:35;99669.56;;;23.23;84.88
46347;BME280;32057;47.830;19.046;2022-08-27T07:04:05;99669.78;;;23.39;86.66
46347;BME280;32057;47.830;19.046;2022-08-27T07:06:32;99665.81;;;23.49;86.73
46347;BME280;32057;47.830;19.046;2022-08-27T07:08:58;99665.25;;;23.61;85.09
46347;BME280;32057;47.830;19.046;2022-08-27T07:11:24;99675.47;;;23.71;82.52
46347;BME280;32057;47.830;19.046;2022-08-27T07:13:50;99678.78;;;23.76;80.63
46347;BME280;32057;47.830;19.046;2022-08-27T07:16:19;99673.38;;;23.79;80.67
46347;BME280;32057;47.830;19.046;2022-08-27T07:18:45;99678.41;;;23.85;81.97
46347;BME280;32057;47.830;19.046;2022-08-27T07:21:11;99683.44;;;23.91;80.97
46347;BME280;32057;47.830;19.046;2022-08-27T07:23:37;99679.66;;;23.97;79.54
46347;BME280;32057;47.830;19.046;2022-08-27T07:26:10;99678.59;;;24.01;79.13
46347;BME280;32057;47.830;19.046;2022-08-27T07:28:37;99681.81;;;24.08;79.79
46347;BME280;32057;47.830;19.046;2022-08-27T07:31:08;99681.41;;;24.17;79.14
46347;BME280;32057;47.830;19.046;2022-08-27T07:33:35;99680.09;;;24.25;79.29
46347;BME280;32057;47.830;19.046;2022-08-27T07:36:04;99681.97;;;24.42;78.34
46347;BME280;32057;47.830;19.046;2022-08-27T07:38:29;99680.47;;;24.56;76.01
46347;BME280;32057;47.830;19.046;2022-08-27T07:40:55;99684.91;;;24.74;75.96
46347;BME280;32057;47.830;19.046;2022-08-27T07:43:20;99683.25;;;24.91;75.64
46347;BME280;32057;47.830;19.046;2022-08-27T07:46:04;99678.03;;;25.07;74.32
46347;BME280;32057;47.830;19.046;2022-08-27T07:48:30;99677.47;;;25.17;73.17
46347;BME280;32057;47.830;19.046;2022-08-27T07:50:58;99682.38;;;25.27;71.50
46347;BME280;32057;47.830;19.046;2022-08-27T07:53:24;99676.56;;;25.36;67.75
46347;BME280;32057;47.830;19.046;2022-08-27T07:55:50;99683.78;;;25.51;70.74
46347;BME280;32057;47.830;19.046;2022-08-27T07:58:16;99679.53;;;25.64;68.21
46347;BME280;32057;47.830;19.046;2022-08-27T08:00:43;99677.06;;;25.77;68.54
46347;BME280;32057;47.830;19.046;2022-08-27T08:03:11;99675.19;;;25.79;66.69
46347;BME280;32057;47.830;19.046;2022-08-27T08:05:43;99676.81;;;25.99;66.93
46347;BME280;32057;47.830;19.046;2022-08-27T08:08:09;99676.91;;;26.14;66.82
46347;BME280;32057;47.830;19.046;2022-08-27T08:10:36;99678.41;;;26.19;62.83
46347;BME280;32057;47.830;19.046;2022-08-27T08:13:03;99680.16;;;26.36;62.51
46347;BME280;32057;47.830;19.046;2022-08-27T08:15:29;99683.06;;;26.48;61.71
46347;BME280;32057;47.830;19.046;2022-08-27T08:17:55;99681.88;;;26.69;63.57
46347;BME280;32057;47.830;19.046;2022-08-27T08:20:20;99681.94;;;26.83;62.95
46347;BME280;32057;47.830;19.046;2022-08-27T08:22:46;99676.53;;;26.85;60.40
46347;BME280;32057;47.830;19.046;2022-08-27T08:25:13;99680.59;;;26.92;56.20
46347;BME280;32057;47.830;19.046;2022-08-27T08:27:40;99679.41;;;27.12;54.91
46347;BME280;32057;47.830;19.046;2022-08-27T08:30:06;99674.31;;;27.08;53.04
46347;BME280;32057;47.830;19.046;2022-08-27T08:32:32;99678.00;;;27.21;53.06
46347;BME280;32057;47.830;19.046;2022-08-27T08:34:57;99672.47;;;27.40;53.20
46347;BME280;32057;47.830;19.046;2022-08-27T08:37:24;99662.94;;;27.50;47.91
46347;BME280;32057;47.830;19.046;2022-08-27T08:39:50;99665.25;;;27.71;51.91
46347;BME280;32057;47.830;19.046;2022-08-27T08:42:50;99668.13;;;27.82;49.62
46347;BME280;32057;47.830;19.046;2022-08-27T08:45:20;99664.91;;;27.91;46.91
46347;BME280;32057;47.830;19.046;2022-08-27T08:48:05;99661.28;;;27.92;45.54
46347;BME280;32057;47.830;19.046;2022-08-27T08:51:01;99668.16;;;27.96;43.66
46347;BME280;32057;47.830;19.046;2022-08-27T08:53:50;99670.16;;;28.07;43.94
46347;BME280;32057;47.830;19.046;2022-08-27T08:56:22;99668.34;;;28.22;43.35
46347;BME280;32057;47.830;19.046;2022-08-27T08:59:01;99669.56;;;28.31;45.48
46347;BME280;32057;47.830;19.046;2022-08-27T09:01:27;99662.16;;;28.49;46.93
46347;BME280;32057;47.830;19.046;2022-08-27T09:04:02;99656.63;;;28.66;44.78
46347;BME280;32057;47.830;19.046;2022-08-27T09:06:39;99664.03;;;28.75;46.40
46347;BME280;32057;47.830;19.046;2022-08-27T09:09:24;99668.25;;;28.65;43.02
46347;BME280;32057;47.830;19.046;2022-08-27T09:12:00;99662.16;;;28.49;41.72
46347;BME280;32057;47.830;19.046;2022-08-27T09:14:42;99660.66;;;28.45;42.40
46347;BME280;32057;47.830;19.046;2022-08-27T09:17:10;99665.03;;;28.46;43.81
46347;BME280;32057;47.830;19.046;2022-08-27T09:19:35;99661.03;;;28.53;43.77
46347;BME280;32057;47.830;19.046;2022-08-27T09:22:26;99653.28;;;28.63;44.06
46347;BME280;32057;47.830;19.046;2022-08-27T09:25:08;99653.63;;;28.71;43.69
46347;BME280;32057;47.830;19.046;2022-08-27T09:27:38;99650.75;;;28.74;43.79
46347;BME280;32057;47.830;19.046;2022-08-27T09:30:12;99648.84;;;28.76;44.28
46347;BME280;32057;47.830;19.046;2022-08-27T09:32:38;99645.63;;;28.84;43.50
46347;BME280;32057;47.830;19.046;2022-08-27T09:35:08;99648.47;;;28.95;40.38
46347;BME280;32057;47.830;19.046;2022-08-27T09:37:44;99645.69;;;28.96;41.07
46347;BME280;32057;47.830;19.046;2022-08-27T09:40:16;99648.88;;;28.89;39.93
46347;BME280;32057;47.830;19.046;2022-08-27T09:42:51;99642.94;;;29.11;41.56
46347;BME280;32057;47.830;19.046;2022-08-27T09:45:26;99641.78;;;29.15;41.86
46347;BME280;32057;47.830;19.046;2022-08-27T09:50:36;99650.84;;;29.52;43.12
46347;BME280;32057;47.830;19.046;2022-08-27T09:53:03;99650.53;;;29.70;41.82
46347;BME280;32057;47.830;19.046;2022-08-27T09:55:48;99650.50;;;29.57;36.45
46347;BME280;32057;47.830;19.046;2022-08-27T09:58:23;99653.81;;;29.35;36.23
46347;BME280;32057;47.830;19.046;2022-08-27T10:01:24;99655.75;;;29.33;36.46
46347;BME280;32057;47.830;19.046;2022-08-27T10:04:01;99651.97;;;29.23;38.26
46347;BME280;32057;47.830;19.046;2022-08-27T10:06:29;99648.69;;;29.45;37.68
46347;BME280;32057;47.830;19.046;2022-08-27T10:09:00;99640.34;;;29.62;36.52
46347;BME280;32057;47.830;19.046;2022-08-27T10:11:33;99646.78;;;29.85;37.20
46347;BME280;32057;47.830;19.046;2022-08-27T10:14:17;99649.03;;;29.91;35.60
46347;BME280;32057;47.830;19.046;2022-08-27T10:19:34;99646.44;;;30.03;34.99
46347;BME280;32057;47.830;19.046;2022-08-27T10:22:21;99650.03;;;30.27;34.31
46347;BME280;32057;47.830;19.046;2022-08-27T10:27:42;99640.84;;;30.55;36.95
46347;BME280;32057;47.830;19.046;2022-08-27T10:30:16;99641.44;;;30.48;33.92
46347;BME280;32057;47.830;19.046;2022-08-27T10:35:29;99641.09;;;30.76;36.69
46347;BME280;32057;47.830;19.046;2022-08-27T10:46:44;99619.97;;;31.07;36.56
46347;BME280;32057;47.830;19.046;2022-08-27T10:51:55;99620.28;;;31.15;37.13
46347;BME280;32057;47.830;19.046;2022-08-27T10:57:25;99620.53;;;31.35;36.46
46347;BME280;32057;47.830;19.046;2022-08-27T11:00:13;99617.66;;;31.49;36.65
46347;BME280;32057;47.830;19.046;2022-08-27T11:02:48;99622.75;;;31.41;34.82
46347;BME280;32057;47.830;19.046;2022-08-27T11:05:20;99615.41;;;31.32;36.80
46347;BME280;32057;47.830;19.046;2022-08-27T11:10:46;99609.56;;;31.38;35.38
46347;BME280;32057;47.830;19.046;2022-08-27T11:13:32;99608.84;;;31.47;35.30
46347;BME280;32057;47.830;19.046;2022-08-27T11:16:01;99604.75;;;31.66;35.95
46347;BME280;32057;47.830;19.046;2022-08-27T11:18:46;99606.19;;;31.70;34.55
46347;BME280;32057;47.830;19.046;2022-08-27T11:21:23;99609.38;;;31.75;32.55
46347;BME280;32057;47.830;19.046;2022-08-27T11:23:58;99605.09;;;31.72;34.95
46347;BME280;32057;47.830;19.046;2022-08-27T11:26:29;99604.38;;;31.70;34.16
46347;BME280;32057;47.830;19.046;2022-08-27T11:28:59;99605.72;;;31.76;33.67
46347;BME280;32057;47.830;19.046;2022-08-27T11:42:37;99588.34;;;31.69;30.05
46347;BME280;32057;47.830;19.046;2022-08-27T11:45:17;99588.00;;;31.73;31.39
46347;BME280;32057;47.830;19.046;2022-08-27T11:47:57;99596.78;;;31.75;31.01
46347;BME280;32057;47.830;19.046;2022-08-27T11:50:24;99587.63;;;31.89;31.75
46347;BME280;32057;47.830;19.046;2022-08-27T11:53:04;99584.53;;;31.94;30.51
46347;BME280;32057;47.830;19.046;2022-08-27T11:55:37;99587.34;;;31.92;30.62
46347;BME280;32057;47.830;19.046;2022-08-27T12:00:46;99576.75;;;32.02;28.58
46347;BME280;32057;47.830;19.046;2022-08-27T12:05:46;99572.19;;;32.03;30.53
46347;BME280;32057;47.830;19.046;2022-08-27T12:13:36;99558.56;;;32.27;31.69
46347;BME280;32057;47.830;19.046;2022-08-27T12:16:19;99559.69;;;32.24;30.71
46347;BME280;32057;47.830;19.046;2022-08-27T12:24:18;99555.00;;;32.38;29.23
46347;BME280;32057;47.830;19.046;2022-08-27T12:26:56;99549.09;;;32.44;32.52
46347;BME280;32057;47.830;19.046;2022-08-27T12:29:41;99550.78;;;32.45;30.96
46347;BME280;32057;47.830;19.046;2022-08-27T12:32:30;99549.19;;;32.53;31.04
46347;BME280;32057;47.830;19.046;2022-08-27T12:35:13;99542.06;;;32.52;29.47
46347;BME280;32057;47.830;19.046;2022-08-27T12:40:18;99536.88;;;32.40;30.17
46347;BME280;32057;47.830;19.046;2022-08-27T12:42:45;99521.78;;;32.48;30.75
46347;BME280;32057;47.830;19.046;2022-08-27T12:45:23;99523.75;;;32.58;29.82
46347;BME280;32057;47.830;19.046;2022-08-27T12:47:51;99521.50;;;32.63;31.19
46347;BME280;32057;47.830;19.046;2022-08-27T12:50:23;99519.00;;;32.71;31.67
46347;BME280;32057;47.830;19.046;2022-08-27T12:52:51;99521.56;;;32.72;31.94
46347;BME280;32057;47.830;19.046;2022-08-27T12:55:25;99516.94;;;32.63;30.83
46347;BME280;32057;47.830;19.046;2022-08-27T12:58:07;99517.47;;;32.57;30.06
46347;BME280;32057;47.830;19.046;2022-08-27T13:03:33;99510.03;;;32.49;31.03
46347;BME280;32057;47.830;19.046;2022-08-27T13:06:01;99513.19;;;32.54;31.14
46347;BME280;32057;47.830;19.046;2022-08-27T13:08:31;99516.38;;;32.60;30.46
46347;BME280;32057;47.830;19.046;2022-08-27T13:11:16;99518.91;;;32.61;29.89
46347;BME280;32057;47.830;19.046;2022-08-27T13:13:42;99518.44;;;32.67;31.66
46347;BME280;32057;47.830;19.046;2022-08-27T13:16:08;99518.88;;;32.72;30.65
46347;BME280;32057;47.830;19.046;2022-08-27T13:18:34;99519.34;;;32.78;31.60
46347;BME280;32057;47.830;19.046;2022-08-27T13:21:05;99512.00;;;32.80;30.94
46347;BME280;32057;47.830;19.046;2022-08-27T13:23:32;99518.28;;;32.90;30.88
46347;BME280;32057;47.830;19.046;2022-08-27T13:26:09;99520.31;;;32.77;30.06
46347;BME280;32057;47.830;19.046;2022-08-27T13:28:37;99519.00;;;32.71;31.58
46347;BME280;32057;47.830;19.046;2022-08-27T13:31:05;99519.91;;;32.60;31.62
46347;BME280;32057;47.830;19.046;2022-08-27T13:33:34;99522.25;;;32.53;29.92
46347;BME280;32057;47.830;19.046;2022-08-27T13:36:01;99524.13;;;32.74;32.48
46347;BME280;32057;47.830;19.046;2022-08-27T13:38:30;99520.84;;;32.70;30.60
46347;BME280;32057;47.830;19.046;2022-08-27T13:41:09;99517.38;;;32.47;30.02
46347;BME280;32057;47.830;19.046;2022-08-27T13:43:39;99512.09;;;32.57;32.18
46347;BME280;32057;47.830;19.046;2022-08-27T13:46:10;99518.44;;;32.67;32.16
46347;BME280;32057;47.830;19.046;2022-08-27T13:48:40;99507.38;;;32.70;32.63
46347;BME280;32057;47.830;19.046;2022-08-27T13:51:08;99512.16;;;32.67;30.98
46347;BME280;32057;47.830;19.046;2022-08-27T13:53:35;99513.75;;;32.69;32.15
46347;BME280;32057;47.830;19.046;2022-08-27T13:56:31;99518.63;;;32.76;32.16
46347;BME280;32057;47.830;19.046;2022-08-27T13:59:11;99513.50;;;32.93;33.38
46347;BME280;32057;47.830;19.046;2022-08-27T14:01:42;99518.53;;;33.08;32.13
46347;BME280;32057;47.830;19.046;2022-08-27T14:04:08;99518.59;;;32.97;32.74
46347;BME280;32057;47.830;19.046;2022-08-27T14:06:46;99519.06;;;32.81;32.48